Time;durP1;ratioP1;P1;durP2;ratioP2;P2;SDS_P1;SDS_P2;PMS_P1;PMS_P2;Temp;Humidity;BMP_temperature;BMP_pressure;BME280_temperature;BME280_humidity;BME280_pressure;Samples;Min_cycle;Max_cycle;Signal;HPM_P1;HPM_P2
2020/12/08 00:01:04;;;;;;;26.17;9.83;;;;;;;-5.15;49.96;101519.91;10502955;28;20056;-53
2020/12/08 00:06:06;;;;;;;22.55;9.38;;;;;;;-5.09;49.92;101522.53;10502893;28;20410;-53
2020/12/08 00:11:13;;;;;;;29.45;11.65;;;;;;;-5.07;49.72;101513.16;10499869;28;20468;-51
2020/12/08 00:16:15;;;;;;;25.30;10.32;;;;;;;-5.00;49.43;101514.91;10501730;28;20165;-53
2020/12/08 00:21:18;;;;;;;34.70;13.23;;;;;;;-4.96;49.46;101523.47;10502947;28;20056;-51
2020/12/08 00:26:20;;;;;;;21.73;9.20;;;;;;;-4.96;49.51;101520.91;10503280;28;20067;-51
2020/12/08 00:31:25;;;;;;;28.10;11.35;;;;;;;-4.99;49.70;101515.75;10502068;28;20048;-51
2020/12/08 00:36:27;;;;;;;30.13;12.70;;;;;;;-4.97;49.66;101508.94;10501317;28;20044;-53
2020/12/08 00:41:30;;;;;;;25.67;10.40;;;;;;;-4.89;49.54;101512.44;10501012;28;20044;-51
2020/12/08 00:46:32;;;;;;;18.53;8.57;;;;;;;-4.87;49.56;101505.59;10499980;28;20072;-51
2020/12/08 00:51:34;;;;;;;26.75;11.85;;;;;;;-4.85;49.58;101496.19;10501311;28;20051;-51
2020/12/08 00:56:36;;;;;;;25.92;9.73;;;;;;;-4.82;49.62;101497.94;10499936;28;20056;-51
2020/12/08 01:01:39;;;;;;;18.75;8.55;;;;;;;-4.87;49.74;101498.75;10499246;28;20459;-52
2020/12/08 01:06:41;;;;;;;24.60;8.60;;;;;;;-4.94;49.89;101502.13;10499319;28;20055;-51
2020/12/08 01:11:45;;;;;;;32.03;14.05;;;;;;;-4.97;50.04;101493.56;10496728;28;20053;-54
2020/12/08 01:16:53;;;;;;;26.25;10.77;;;;;;;-4.98;49.79;101484.16;10499468;28;20054;-51
2020/12/08 01:21:55;;;;;;;23.58;8.88;;;;;;;-5.02;50.38;101478.13;10500329;28;20084;-52
2020/12/08 01:27:01;;;;;;;28.30;12.95;;;;;;;-5.02;50.21;101477.25;10498671;28;20483;-51
2020/12/08 01:32:05;;;;;;;18.40;6.95;;;;;;;-5.02;50.06;101469.56;10497547;28;20048;-52
2020/12/08 01:37:08;;;;;;;21.58;8.70;;;;;;;-4.97;50.18;101465.34;10501793;28;20056;-51
2020/12/08 01:42:11;;;;;;;20.92;8.18;;;;;;;-4.95;50.08;101466.22;10500451;28;20052;-51
2020/12/08 01:47:14;;;;;;;;;;;;;;;-4.93;50.01;101464.50;10497985;28;20481;-53
2020/12/08 01:52:16;;;;;;;23.70;7.35;;;;;;;-4.88;49.77;101462.84;10499504;28;19982;-51
2020/12/08 01:57:19;;;;;;;28.20;8.80;;;;;;;-4.87;49.66;101460.25;10498135;28;20477;-51
2020/12/08 02:02:25;;;;;;;24.00;8.20;;;;;;;-4.89;49.53;101463.69;10497145;28;20419;-52
2020/12/08 02:07:29;;;;;;;32.38;11.50;;;;;;;-4.89;49.53;101461.13;10498553;28;20060;-53
2020/12/08 02:12:32;;;;;;;43.05;14.70;;;;;;;-4.81;49.31;101454.31;10496165;28;20079;-52
2020/12/08 02:17:34;;;;;;;20.80;8.63;;;;;;;-4.74;49.14;101450.97;10499176;28;20045;-53
2020/12/08 02:22:37;;;;;;;33.95;11.85;;;;;;;-4.75;49.16;101438.09;10498328;28;20404;-51
2020/12/08 02:27:40;;;;;;;17.07;6.60;;;;;;;-4.71;48.91;101442.38;10497739;28;20071;-53
2020/12/08 02:32:45;;;;;;;26.38;10.40;;;;;;;-4.74;49.09;101439.81;10497211;28;20048;-51
2020/12/08 02:37:48;;;;;;;26.70;9.30;;;;;;;-4.80;49.03;101439.78;10497884;28;20113;-53
2020/12/08 02:42:50;;;;;;;21.05;8.35;;;;;;;-4.92;49.27;101435.47;10496150;28;20087;-53
2020/12/08 02:47:52;;;;;;;24.00;10.35;;;;;;;-5.01;49.54;101440.53;10496565;28;20084;-53
2020/12/08 02:52:55;;;;;;;25.23;11.15;;;;;;;-5.13;49.95;101442.16;10496748;28;20052;-52
2020/12/08 02:57:57;;;;;;;27.15;9.25;;;;;;;-5.17;49.80;101437.88;10496683;28;20113;-53
2020/12/08 03:02:59;;;;;;;31.75;9.25;;;;;;;-5.15;50.06;101443.00;10496281;28;20064;-51
2020/12/08 03:08:05;;;;;;;24.00;9.85;;;;;;;-5.18;49.99;101436.13;10496859;28;20044;-57
2020/12/08 03:13:07;;;;;;;22.77;10.13;;;;;;;-5.22;49.94;101439.53;10493664;28;20106;-53
2020/12/08 03:18:11;;;;;;;28.27;9.38;;;;;;;-5.22;50.28;101436.09;10495650;28;20354;-51
2020/12/08 03:23:14;;;;;;;24.30;10.13;;;;;;;-5.25;50.28;101436.09;10493289;28;20072;-50
2020/12/08 03:28:17;;;;;;;31.00;10.48;;;;;;;-5.24;50.09;101436.09;10503936;28;20082;-51
2020/12/08 03:33:22;;;;;;;26.95;10.25;;;;;;;-5.21;49.89;101436.09;10504033;28;20127;-51
2020/12/08 03:38:26;;;;;;;23.65;8.95;;;;;;;-5.18;49.97;101437.84;10502423;28;20048;-51
2020/12/08 03:43:29;;;;;;;32.55;10.98;;;;;;;-5.18;49.77;101443.81;10461370;28;20045;-53
2020/12/08 03:48:31;;;;;;;34.15;13.25;;;;;;;-5.19;49.82;101441.25;10461200;28;20143;-52
2020/12/08 03:53:34;;;;;;;33.08;12.32;;;;;;;-5.17;49.57;101450.69;10461375;28;20114;-53
2020/12/08 03:58:36;;;;;;;35.88;11.93;;;;;;;-5.19;49.58;101444.69;10460695;28;20143;-51
2020/12/08 04:03:38;;;;;;;30.58;11.32;;;;;;;-5.22;49.93;101442.09;10460644;28;20049;-56
2020/12/08 04:08:42;;;;;;;27.63;9.15;;;;;;;-5.19;49.58;101436.97;10497509;28;20113;-53
2020/12/08 04:13:44;;;;;;;34.70;12.30;;;;;;;-5.18;49.60;101441.25;10499379;28;20449;-51
2020/12/08 04:18:47;;;;;;;32.63;11.68;;;;;;;-5.16;49.32;101441.28;10502199;28;20424;-54
2020/12/08 04:23:51;;;;;;;21.10;8.43;;;;;;;-5.22;49.53;101439.53;10501418;28;20044;-52
2020/12/08 04:28:53;;;;;;;24.50;10.55;;;;;;;-5.26;49.73;101449.75;10501482;28;20404;-53
2020/12/08 04:33:55;;;;;;;24.42;11.40;;;;;;;-5.31;49.70;101452.28;10500491;28;20044;-52
2020/12/08 04:38:58;;;;;;;25.75;9.63;;;;;;;-5.37;49.79;101447.09;10504273;28;20068;-52
2020/12/08 04:44:02;;;;;;;25.33;9.33;;;;;;;-5.44;50.03;101453.88;10504993;28;20054;-51
2020/12/08 04:49:03;;;;;;;23.25;8.50;;;;;;;-5.52;49.99;101450.38;10500771;28;20052;-52
2020/12/08 04:54:07;;;;;;;25.85;9.68;;;;;;;-5.62;50.02;101449.44;10501674;28;20191;-52
2020/12/08 04:59:08;;;;;;;;;;;;;;;-5.64;50.07;101458.81;10501720;28;20153;-52
2020/12/08 05:04:10;;;;;;;26.38;10.68;;;;;;;-5.64;49.97;101448.56;10502493;28;19934;-52
2020/12/08 05:09:13;;;;;;;23.02;9.10;;;;;;;-5.60;49.90;101455.47;10499883;28;20060;-52
2020/12/08 05:14:14;;;;;;;20.30;8.20;;;;;;;-5.60;49.84;101459.72;10496853;28;20477;-53
2020/12/08 05:19:16;;;;;;;31.45;11.13;;;;;;;-5.56;49.80;101459.75;10499566;28;20469;-52
2020/12/08 05:24:27;;;;;;;22.77;10.13;;;;;;;-5.60;49.67;101470.84;10499582;28;20055;-51
2020/12/08 05:29:29;;;;;;;26.95;9.48;;;;;;;-5.55;49.78;101465.72;10498465;28;20048;-51
2020/12/08 05:34:33;;;;;;;27.85;11.02;;;;;;;-5.59;49.91;101476.81;10498631;28;20044;-52
2020/12/08 05:39:37;;;;;;;21.67;9.23;;;;;;;-5.61;49.98;101479.34;10498855;28;20532;-51
2020/12/08 05:44:40;;;;;;;22.95;9.10;;;;;;;-5.59;49.92;101476.81;10495942;28;20507;-56
2020/12/08 05:49:42;;;;;;;22.55;9.25;;;;;;;-5.43;50.38;101480.38;10499089;28;20051;-50
2020/12/08 05:54:45;;;;;;;30.10;10.77;;;;;;;-5.22;50.22;101488.25;10498204;28;20071;-51
2020/12/08 05:59:54;;;;;;;22.43;11.33;;;;;;;-4.95;50.46;101486.75;10497548;28;20076;-50
2020/12/08 06:04:56;;;;;;;26.75;10.02;;;;;;;-4.04;51.21;101480.34;10495955;28;20056;-50
2020/12/08 06:10:10;;;;;;;26.45;11.45;;;;;;;-2.99;50.83;101484.72;10494521;28;20048;-53
2020/12/08 06:15:17;;;;;;;34.78;14.02;;;;;;;-1.88;50.95;101486.13;10494500;28;20064;-51
2020/12/08 06:20:19;;;;;;;30.52;12.70;;;;;;;-0.67;50.31;101492.03;10496245;28;20068;-51
2020/12/08 06:25:22;;;;;;;28.95;13.13;;;;;;;0.32;49.30;101487.38;10494986;28;20469;-50
2020/12/08 06:30:24;;;;;;;47.25;15.07;;;;;;;-0.43;46.50;101503.84;10497358;28;20048;-49
2020/12/08 06:35:32;;;;;;;34.17;13.52;;;;;;;-1.21;46.48;101496.81;10497153;28;20052;-51
2020/12/08 06:40:35;;;;;;;25.80;11.60;;;;;;;-1.87;46.20;101503.28;10497428;28;20036;-51
2020/12/08 06:45:36;;;;;;;29.58;12.55;;;;;;;-2.36;46.26;101505.22;10496828;28;20062;-50
2020/12/08 06:50:38;;;;;;;32.10;14.00;;;;;;;-2.58;46.19;101504.41;10495899;28;20503;-51
2020/12/08 06:55:47;;;;;;;30.08;12.55;;;;;;;-2.74;46.21;101506.19;10496915;28;20139;-49
2020/12/08 07:00:48;;;;;;;36.03;15.07;;;;;;;-2.73;46.27;101509.59;10502244;28;20052;-50
2020/12/08 07:05:50;;;;;;;37.33;15.38;;;;;;;-2.66;46.00;101506.13;10504626;28;20087;-50
2020/12/08 07:10:53;;;;;;;37.80;13.88;;;;;;;-2.72;46.04;101506.16;10502235;28;20066;-53
2020/12/08 07:15:54;;;;;;;33.60;13.70;;;;;;;-2.78;46.08;101507.88;10504065;28;20385;-49
2020/12/08 07:20:57;;;;;;;25.60;11.63;;;;;;;-1.28;48.02;101511.50;10504663;28;20052;-50
2020/12/08 07:26:00;;;;;;;22.95;10.80;;;;;;;1.84;48.26;101510.66;10504672;28;20052;-50
2020/12/08 07:31:01;;;;;;;38.33;15.70;;;;;;;4.68;46.54;101496.31;10504451;28;20048;-52
2020/12/08 07:36:03;;;;;;;45.30;18.25;;;;;;;7.18;42.93;101505.34;10505252;28;20374;-49
2020/12/08 07:41:16;;;;;;;38.33;17.45;;;;;;;9.42;39.62;101500.06;10503447;28;20072;-51
2020/12/08 07:46:23;;;;;;;36.10;18.08;;;;;;;10.84;37.62;101496.75;10500776;28;20040;-51
2020/12/08 07:51:26;;;;;;;30.38;14.90;;;;;;;11.70;36.38;101494.25;10500836;28;20067;-51
2020/12/08 07:56:30;;;;;;;38.83;18.35;;;;;;;9.95;35.41;101493.78;10501835;28;20087;-51
2020/12/08 08:01:39;;;;;;;35.40;18.92;;;;;;;7.69;35.69;101493.50;10502801;28;20052;-53
2020/12/08 08:06:41;;;;;;;43.88;17.88;;;;;;;6.06;35.84;101495.88;10502855;28;20053;-50
2020/12/08 08:11:43;;;;;;;36.53;18.38;;;;;;;4.72;36.42;101503.13;10498326;28;20049;-54
2020/12/08 08:16:47;;;;;;;37.33;17.33;;;;;;;3.86;36.89;101500.53;10501578;28;20044;-50
2020/12/08 08:21:48;;;;;;;38.00;16.88;;;;;;;3.11;36.87;101502.56;10502014;28;20072;-52
2020/12/08 08:26:51;;;;;;;38.63;16.42;;;;;;;2.51;37.36;101504.00;10498858;28;20564;-50
2020/12/08 08:31:53;;;;;;;29.70;15.32;;;;;;;1.99;37.61;101509.47;10501509;28;20060;-50
2020/12/08 08:36:56;;;;;;;37.30;15.65;;;;;;;1.44;37.40;101502.78;10497876;28;20068;-51
2020/12/08 08:41:58;;;;;;;31.75;14.45;;;;;;;0.86;38.03;101497.78;10498011;28;20045;-50
2020/12/08 08:47:00;;;;;;;34.80;14.93;;;;;;;0.55;38.34;101507.72;10501468;28;20075;-51
2020/12/08 08:52:02;;;;;;;35.85;15.18;;;;;;;0.43;38.33;101507.91;10501577;28;20044;-50
2020/12/08 08:57:04;;;;;;;28.38;12.20;;;;;;;1.87;38.37;101504.56;10499695;28;20082;-51
2020/12/08 09:02:06;;;;;;;42.47;18.52;;;;;;;5.34;36.71;101495.88;10499692;28;20074;-50
2020/12/08 09:07:07;;;;;;;34.03;15.93;;;;;;;8.55;33.65;101492.19;10497397;28;20405;-50
2020/12/08 09:12:10;;;;;;;35.58;16.65;;;;;;;10.71;31.14;101486.06;10499769;28;20076;-53
2020/12/08 09:17:12;;;;;;;36.58;17.70;;;;;;;11.98;29.58;101488.16;10497630;28;20086;-52
2020/12/08 09:22:13;;;;;;;35.85;16.75;;;;;;;12.72;28.32;101488.72;10497528;28;20055;-51
2020/12/08 09:27:17;;;;;;;29.38;15.18;;;;;;;13.62;27.00;101484.41;10496739;28;20066;-52
2020/12/08 09:32:19;;;;;;;33.25;16.90;;;;;;;14.04;26.60;101493.75;10498039;28;20488;-52
2020/12/08 09:37:21;;;;;;;37.15;17.23;;;;;;;14.41;26.16;101494.59;10499464;28;20055;-53
2020/12/08 09:42:23;;;;;;;39.95;19.90;;;;;;;14.28;25.21;101489.34;10498391;28;20142;-52
2020/12/08 09:47:25;;;;;;;33.22;16.98;;;;;;;13.40;26.04;101485.06;10497792;28;20058;-51
2020/12/08 09:52:28;;;;;;;38.83;18.02;;;;;;;11.71;27.11;101495.94;10496765;28;20573;-51
2020/12/08 09:57:31;;;;;;;34.67;18.23;;;;;;;9.34;28.26;101489.13;10497898;28;20111;-53
2020/12/08 10:02:32;;;;;;;35.17;18.65;;;;;;;7.21;28.95;101494.75;10499249;28;20063;-50
2020/12/08 10:07:34;;;;;;;42.35;20.77;;;;;;;5.77;29.73;101495.19;10498465;28;20139;-52
2020/12/08 10:12:37;;;;;;;39.25;18.70;;;;;;;4.63;30.19;101492.16;10495673;28;20079;-53
2020/12/08 10:17:38;;;;;;;36.05;16.98;;;;;;;3.79;30.96;101499.00;10498208;28;20412;-51
2020/12/08 10:22:40;;;;;;;37.67;17.35;;;;;;;2.95;31.27;101506.44;10496848;28;20051;-51
2020/12/08 10:27:43;;;;;;;30.63;15.38;;;;;;;2.16;32.35;101497.03;10497187;28;20559;-50
2020/12/08 10:32:44;;;;;;;32.03;15.83;;;;;;;1.54;32.66;101497.41;10501566;28;20086;-50
2020/12/08 10:37:46;;;;;;;36.22;14.02;;;;;;;1.24;32.74;101495.41;10504470;28;20040;-52
2020/12/08 10:42:49;;;;;;;34.55;15.18;;;;;;;0.84;33.14;101483.97;10505697;28;20052;-51
2020/12/08 10:47:50;;;;;;;34.30;13.02;;;;;;;0.44;33.68;101474.25;10506964;28;20072;-50
2020/12/08 10:52:52;;;;;;;33.47;15.13;;;;;;;0.22;33.97;101475.47;10505877;28;20499;-50
2020/12/08 10:57:54;;;;;;;32.38;14.55;;;;;;;0.09;34.60;101481.66;10506151;28;20082;-51
2020/12/08 11:02:56;;;;;;;28.77;12.95;;;;;;;-0.13;34.89;101470.75;10503694;28;20044;-52
2020/12/08 11:07:58;;;;;;;39.45;14.13;;;;;;;-0.21;35.43;101483.78;10504267;28;20370;-49
2020/12/08 11:13:00;;;;;;;26.85;13.88;;;;;;;-0.23;35.25;101472.59;10501971;28;20135;-52
2020/12/08 11:18:02;;;;;;;29.02;12.88;;;;;;;-0.37;35.23;101469.31;10503880;28;20392;-50
2020/12/08 11:23:04;;;;;;;31.40;14.73;;;;;;;-0.46;35.71;101472.88;10504390;28;20056;-50
2020/12/08 11:28:06;;;;;;;35.50;14.80;;;;;;;-0.51;35.82;101461.72;10503466;28;20053;-50
2020/12/08 11:33:08;;;;;;;33.95;14.20;;;;;;;-0.57;36.10;101464.38;10503734;28;20363;-50
2020/12/08 11:38:10;;;;;;;31.70;14.52;;;;;;;-0.66;35.66;101465.34;10503189;28;20469;-50
2020/12/08 11:43:12;;;;;;;31.50;14.30;;;;;;;-0.77;35.96;101459.41;10502627;28;20048;-50
2020/12/08 11:48:14;;;;;;;34.35;16.17;;;;;;;-0.77;36.33;101457.72;10502477;28;20078;-50
2020/12/08 11:53:16;;;;;;;37.88;16.33;;;;;;;-0.97;36.49;101459.63;10503173;28;20052;-51
2020/12/08 11:58:19;;;;;;;34.75;14.63;;;;;;;-1.13;36.64;101456.34;10503047;28;20485;-50
2020/12/08 12:03:21;;;;;;;38.40;16.15;;;;;;;-1.26;37.28;101449.56;10502917;28;20060;-50
2020/12/08 12:08:23;;;;;;;48.25;15.65;;;;;;;-1.35;37.17;101447.94;10502476;28;20385;-51
2020/12/08 12:13:25;;;;;;;35.25;13.90;;;;;;;-1.47;37.36;101451.47;10501113;28;20059;-52
2020/12/08 12:18:27;;;;;;;31.23;14.10;;;;;;;-1.61;38.25;101445.53;10503593;28;20051;-50
2020/12/08 12:23:29;;;;;;;33.53;13.75;;;;;;;-1.68;38.31;101441.31;10502798;28;20051;-50
2020/12/08 12:28:32;;;;;;;37.80;13.48;;;;;;;-1.82;38.56;101440.53;10500767;28;20049;-52
2020/12/08 12:33:33;;;;;;;38.05;15.70;;;;;;;-1.97;38.84;101444.03;10501371;28;20058;-49
2020/12/08 12:38:35;;;;;;;31.15;14.30;;;;;;;-2.05;39.12;101443.25;10501056;28;20388;-50
2020/12/08 12:43:38;;;;;;;32.92;14.93;;;;;;;-2.17;39.59;101450.16;10496407;28;20060;-51
2020/12/08 12:48:40;;;;;;;31.17;11.93;;;;;;;-2.22;39.55;101445.91;10495776;28;20051;-51
2020/12/08 12:53:41;;;;;;;33.63;13.30;;;;;;;-2.33;39.73;101439.09;10495653;28;20511;-51
2020/12/08 12:58:44;;;;;;;33.47;13.75;;;;;;;-2.36;40.05;101451.13;10496121;28;20481;-49
2020/12/08 13:03:46;;;;;;;23.23;10.33;;;;;;;-2.44;40.37;101445.13;10497050;28;20072;-50
2020/12/08 13:08:48;;;;;;;26.30;12.13;;;;;;;-2.55;40.47;101434.88;10497010;28;20106;-50
2020/12/08 13:13:51;;;;;;;27.23;10.82;;;;;;;-2.61;40.63;101442.63;10500374;28;20058;-50
2020/12/08 13:18:53;;;;;;;31.47;11.17;;;;;;;-2.67;40.72;101443.50;10496143;28;20056;-50
2020/12/08 13:23:54;;;;;;;33.95;13.52;;;;;;;-2.72;40.94;101439.22;10497887;28;20048;-51
2020/12/08 13:28:57;;;;;;;33.13;12.35;;;;;;;-2.75;41.06;101444.38;10495882;28;20059;-51
2020/12/08 13:33:59;;;;;;;28.35;10.85;;;;;;;-2.79;41.16;101443.53;10498606;28;20117;-50
2020/12/08 13:39:01;;;;;;;30.85;13.48;;;;;;;-2.80;41.13;101441.84;10496073;28;20075;-51
2020/12/08 13:44:03;;;;;;;29.33;11.90;;;;;;;-2.83;41.63;101441.84;10498323;28;20040;-50
2020/12/08 13:49:05;;;;;;;37.33;12.65;;;;;;;-2.83;41.48;101437.53;10494904;28;20048;-52
2020/12/08 13:54:07;;;;;;;34.95;13.25;;;;;;;-2.86;41.51;101440.13;10500163;28;20067;-51
2020/12/08 13:59:10;;;;;;;31.88;11.38;;;;;;;-2.90;41.66;101443.53;10500739;28;20053;-50
2020/12/08 14:04:12;;;;;;;33.20;11.68;;;;;;;-2.90;41.48;101437.53;10499293;28;20053;-51
2020/12/08 14:09:14;;;;;;;23.73;10.20;;;;;;;-2.91;41.67;101438.41;10496997;28;20135;-51
2020/12/08 14:14:17;;;;;;;27.35;12.60;;;;;;;-2.91;41.95;101439.28;10495231;28;20048;-51
2020/12/08 14:19:18;;;;;;;29.17;12.45;;;;;;;-2.95;41.96;101445.28;10456890;28;20051;-51
2020/12/08 14:24:23;;;;;;;22.77;8.90;;;;;;;-2.99;42.30;101453.00;10491445;28;20044;-51
2020/12/08 14:29:25;;;;;;;23.50;8.20;;;;;;;-3.03;42.22;101455.56;10498235;28;20143;-52
2020/12/08 14:34:28;;;;;;;19.90;8.53;;;;;;;-3.04;42.06;101456.44;10497704;28;20049;-52
2020/12/08 14:39:29;;;;;;;23.30;9.82;;;;;;;-3.06;42.10;101458.16;10471818;28;20135;-52
2020/12/08 14:44:32;;;;;;;18.48;7.00;;;;;;;-3.09;42.19;101458.16;10495160;28;20049;-51
2020/12/08 14:49:33;;;;;;;22.05;10.32;;;;;;;-3.10;42.07;101455.59;10493374;28;20090;-51
2020/12/08 14:54:35;;;;;;;29.42;12.20;;;;;;;-3.16;42.30;101459.03;10495856;28;20057;-51
2020/12/08 14:59:38;;;;;;;22.75;8.68;;;;;;;-3.18;42.01;101459.88;10493965;28;20526;-51
2020/12/08 15:04:39;;;;;;;28.17;10.52;;;;;;;-3.19;42.05;101455.63;10489621;28;20048;-53
2020/12/08 15:09:41;;;;;;;18.63;7.20;;;;;;;-3.17;42.01;101447.03;10496737;28;20052;-51
2020/12/08 15:14:44;;;;;;;19.42;7.90;;;;;;;-3.19;41.78;101453.03;10497689;28;20044;-51
2020/12/08 15:19:46;;;;;;;16.45;6.90;;;;;;;-3.21;41.71;101442.72;10502311;28;20079;-52
2020/12/08 15:24:47;;;;;;;26.85;8.68;;;;;;;-3.17;41.62;101448.72;10504016;28;20056;-50
2020/12/08 15:29:50;;;;;;;23.73;8.48;;;;;;;-3.13;41.75;101458.19;10502646;28;20049;-52
2020/12/08 15:34:51;;;;;;;14.10;5.65;;;;;;;-3.12;41.41;101465.88;10462739;28;20045;-52
2020/12/08 15:39:53;;;;;;;12.20;5.22;;;;;;;-3.09;41.41;101453.00;10462425;28;20053;-51
2020/12/08 15:44:56;;;;;;;16.85;6.55;;;;;;;-3.03;40.72;101454.72;10503014;28;20045;-51
2020/12/08 15:50:05;;;;;;;20.77;7.80;;;;;;;-3.01;40.82;101447.88;10500502;28;20143;-49
2020/12/08 15:55:08;;;;;;;18.42;7.28;;;;;;;-2.96;40.57;101453.84;10504498;28;20059;-50
2020/12/08 16:00:11;;;;;;;21.70;8.57;;;;;;;-2.96;40.60;101440.97;10502951;28;20518;-50
2020/12/08 16:05:13;;;;;;;9.80;3.95;;;;;;;-2.94;40.74;101451.28;10501940;28;20051;-51
2020/12/08 16:10:15;;;;;;;15.50;6.68;;;;;;;-2.95;40.49;101449.59;10501314;28;20052;-49
2020/12/08 16:15:17;;;;;;;23.30;9.10;;;;;;;-3.02;40.60;101453.84;10461105;28;20469;-49
2020/12/08 16:20:19;;;;;;;19.13;7.10;;;;;;;-3.04;41.03;101458.16;10460764;28;20048;-49
2020/12/08 16:25:21;;;;;;;26.40;8.65;;;;;;;-3.06;40.76;101459.88;10491344;28;20392;-50
2020/12/08 16:30:24;;;;;;;20.05;8.32;;;;;;;-3.09;41.43;101454.75;10460393;28;20076;-55
2020/12/08 16:35:26;;;;;;;19.57;8.40;;;;;;;-3.12;41.54;101460.72;10477845;28;20057;-55
2020/12/08 16:40:28;;;;;;;22.83;10.80;;;;;;;-3.13;42.06;101460.75;10465020;28;20052;-51
2020/12/08 16:45:30;;;;;;;27.65;10.80;;;;;;;-3.12;41.57;101457.31;10499650;28;20075;-49
2020/12/08 16:50:32;;;;;;;24.42;8.98;;;;;;;-3.09;41.97;101458.16;10497023;28;20048;-50
2020/12/08 16:55:34;;;;;;;23.30;9.73;;;;;;;-3.13;42.16;101458.19;10499888;28;20060;-50
2020/12/08 17:00:36;;;;;;;27.55;9.27;;;;;;;-3.17;42.25;101459.91;10501231;28;20059;-49
2020/12/08 17:05:38;;;;;;;25.02;8.32;;;;;;;-3.18;42.63;101457.31;10509271;28;20059;-50
2020/12/08 17:10:40;;;;;;;19.38;7.85;;;;;;;-3.18;42.52;101460.75;10500061;28;20048;-50
2020/12/08 17:15:43;;;;;;;24.75;8.35;;;;;;;-3.14;42.42;101456.44;10499854;28;20049;-50
2020/12/08 17:20:44;;;;;;;20.48;10.10;;;;;;;-3.09;42.24;101449.59;10499666;28;20440;-58
2020/12/08 17:25:46;;;;;;;21.50;8.70;;;;;;;-3.05;41.84;101446.16;10497457;28;20044;-49
2020/12/08 17:30:49;;;;;;;29.95;13.05;;;;;;;-2.99;41.87;101448.72;10499242;28;20083;-49
2020/12/08 17:35:50;;;;;;;29.60;13.02;;;;;;;-2.97;41.48;101451.28;10498423;28;20474;-49
2020/12/08 17:40:52;;;;;;;29.75;11.65;;;;;;;-3.06;41.70;101444.44;10495324;28;20048;-51
2020/12/08 17:45:54;;;;;;;33.50;12.40;;;;;;;-3.18;41.88;101449.59;10497657;28;20052;-49
2020/12/08 17:50:56;;;;;;;23.73;10.18;;;;;;;-3.23;41.87;101441.91;10488657;28;20051;-49
2020/12/08 17:55:58;;;;;;;25.50;10.95;;;;;;;-3.28;42.27;101446.19;10456876;28;20064;-50
2020/12/08 18:01:00;;;;;;;23.70;9.57;;;;;;;-3.34;42.56;101453.91;10490437;28;20048;-51
2020/12/08 18:06:02;;;;;;;32.60;10.48;;;;;;;-3.40;42.81;101457.31;10497932;28;20041;-50
2020/12/08 18:11:06;;;;;;;30.25;10.73;;;;;;;-3.47;43.08;101450.47;10475412;28;20151;-49
2020/12/08 18:16:09;;;;;;;18.92;7.68;;;;;;;-3.49;43.09;101459.88;10499180;28;20056;-50
2020/12/08 18:21:11;;;;;;;18.77;7.68;;;;;;;-3.46;43.25;101449.59;10497150;28;20075;-50
2020/12/08 18:26:12;;;;;;;21.17;7.88;;;;;;;-3.50;43.43;101456.47;10492970;28;20374;-51
2020/12/08 18:31:15;;;;;;;18.55;6.95;;;;;;;-3.53;43.84;101461.59;10497296;28;20475;-51
2020/12/08 18:36:17;;;;;;;22.08;8.15;;;;;;;-3.55;43.88;101465.03;10496200;28;20508;-49
2020/12/08 18:41:18;;;;;;;18.88;7.25;;;;;;;-3.51;43.78;101462.47;10497026;28;20062;-51
2020/12/08 18:46:21;;;;;;;17.55;7.43;;;;;;;-3.56;44.22;101466.75;10496667;28;20055;-50
2020/12/08 18:51:23;;;;;;;20.35;7.80;;;;;;;-3.59;44.23;101463.31;10492820;28;20382;-49
2020/12/08 18:56:25;;;;;;;19.27;8.85;;;;;;;-3.62;44.14;101453.03;10470194;28;20463;-56
2020/12/08 19:01:27;;;;;;;16.17;5.45;;;;;;;-3.62;44.18;101458.16;10492174;28;20067;-49
2020/12/08 19:06:29;;;;;;;18.65;7.03;;;;;;;-3.63;44.14;101469.28;10503165;28;20049;-51
2020/12/08 19:11:37;;;;;;;17.42;6.57;;;;;;;-3.63;44.21;101465.03;10504946;28;20067;-49
2020/12/08 19:16:43;;;;;;;18.35;7.20;;;;;;;-3.68;44.40;101464.16;10505163;28;20051;-51
2020/12/08 19:21:46;;;;;;;15.48;6.47;;;;;;;-3.72;44.29;101463.31;10507012;28;20102;-50
2020/12/08 19:26:48;;;;;;;15.65;7.05;;;;;;;-3.75;44.57;101468.44;10504712;28;20497;-49
2020/12/08 19:31:55;;;;;;;15.77;7.32;;;;;;;-3.77;44.41;101465.00;10503541;28;20137;-51
2020/12/08 19:36:57;;;;;;;22.08;8.05;;;;;;;-3.76;44.70;101474.41;10491719;28;20037;-49
2020/12/08 19:41:59;;;;;;;18.48;6.72;;;;;;;-3.79;44.82;101484.69;10493489;28;20452;-49
2020/12/08 19:47:02;;;;;;;15.98;7.03;;;;;;;-3.85;45.02;101476.94;10502292;28;20363;-50
2020/12/08 19:52:07;;;;;;;22.83;8.23;;;;;;;-3.90;45.23;101488.94;10500599;28;20135;-49
2020/12/08 19:57:09;;;;;;;24.90;8.48;;;;;;;-3.88;45.09;101482.09;10502485;28;20056;-50
2020/12/08 20:02:12;;;;;;;24.27;8.55;;;;;;;-3.84;45.30;101483.84;10503033;28;20076;-49
2020/12/08 20:07:13;;;;;;;18.00;6.88;;;;;;;-3.80;45.21;101475.25;10504822;28;20040;-51
2020/12/08 20:12:19;;;;;;;17.15;6.50;;;;;;;-3.76;45.51;101474.41;10506928;28;20077;-50
2020/12/08 20:17:22;;;;;;;25.38;7.55;;;;;;;-3.76;45.68;101476.13;10503126;28;20162;-50
2020/12/08 20:22:24;;;;;;;11.63;4.95;;;;;;;-3.76;45.64;101471.84;10501489;28;20052;-49
2020/12/08 20:27:26;;;;;;;20.13;7.10;;;;;;;-3.78;45.80;101473.56;10502379;28;20076;-49
2020/12/08 20:32:28;;;;;;;15.40;7.20;;;;;;;-3.78;46.07;101483.84;10503565;28;20122;-51
2020/12/08 20:37:30;;;;;;;18.50;6.75;;;;;;;-3.74;46.04;101482.13;10500648;28;20050;-49
2020/12/08 20:42:32;;;;;;;18.83;7.68;;;;;;;-3.68;45.84;101489.00;10501063;28;20048;-50
2020/12/08 20:47:35;;;;;;;20.58;8.25;;;;;;;-3.68;45.70;101489.00;10499494;28;20102;-49
2020/12/08 20:52:36;;;;;;;17.17;5.97;;;;;;;-3.67;46.10;101480.44;10502148;28;20090;-50
2020/12/08 20:57:38;;;;;;;18.98;6.25;;;;;;;-3.67;46.11;101483.00;10503076;28;20053;-49
2020/12/08 21:02:41;;;;;;;17.30;6.38;;;;;;;-3.69;45.91;101483.00;10500669;28;20044;-49
2020/12/08 21:07:44;;;;;;;13.23;6.93;;;;;;;-3.77;46.33;101475.28;10500996;28;20126;-49
2020/12/08 21:12:45;;;;;;;18.00;6.10;;;;;;;-3.79;46.58;101469.25;10500272;28;20879;-52
2020/12/08 21:17:49;;;;;;;15.15;6.63;;;;;;;-3.76;46.75;101465.84;10499995;28;20048;-49
2020/12/08 21:22:54;;;;;;;16.73;7.37;;;;;;;-3.79;46.74;101469.25;10498765;28;20473;-51
2020/12/08 21:27:57;;;;;;;18.17;6.60;;;;;;;-3.84;46.83;101473.56;10501079;28;20416;-49
2020/12/08 21:32:59;;;;;;;17.30;6.68;;;;;;;-3.85;47.19;101464.09;10500340;28;20056;-51
2020/12/08 21:38:01;;;;;;;14.95;6.20;;;;;;;-3.81;46.83;101462.44;10498290;28;20109;-50
2020/12/08 21:43:03;;;;;;;19.60;7.18;;;;;;;-3.81;47.06;101465.00;10499295;28;20059;-51
2020/12/08 21:48:05;;;;;;;17.92;6.72;;;;;;;-3.83;47.37;101456.41;10496888;28;20058;-51
2020/12/08 21:53:08;;;;;;;20.15;6.85;;;;;;;-3.80;47.01;101451.28;10497844;28;20060;-49
2020/12/08 21:58:09;;;;;;;15.52;7.03;;;;;;;-3.85;47.15;101453.81;10498107;28;20493;-49
2020/12/08 22:03:12;;;;;;;20.83;8.18;;;;;;;-3.86;47.25;101443.56;10500087;28;20058;-49
2020/12/08 22:08:13;;;;;;;19.65;8.55;;;;;;;-3.82;47.15;101442.72;10499463;28;20086;-51
2020/12/08 22:13:15;;;;;;;25.15;9.70;;;;;;;-3.78;46.82;101440.16;10499164;28;20049;-52
2020/12/08 22:18:18;;;;;;;20.52;8.80;;;;;;;-3.74;46.39;101436.72;10497069;28;20067;-50
2020/12/08 22:23:20;;;;;;;24.88;11.48;;;;;;;-3.74;46.41;101433.31;10497900;28;20057;-50
2020/12/08 22:28:21;;;;;;;20.65;8.60;;;;;;;-3.74;46.25;101448.72;10497150;28;20392;-49
2020/12/08 22:33:24;;;;;;;22.55;8.48;;;;;;;-3.80;46.28;101446.16;10498058;28;20079;-49
2020/12/08 22:38:26;;;;;;;21.73;7.32;;;;;;;-3.90;46.49;101442.72;10501513;28;20055;-54
2020/12/08 22:43:28;;;;;;;15.90;6.70;;;;;;;-3.94;46.57;101438.44;10498995;28;20135;-50
2020/12/08 22:48:30;;;;;;;20.40;8.82;;;;;;;-4.00;46.59;101436.69;10495443;28;20055;-51